Time;durP1;ratioP1;P1;durP2;ratioP2;P2;SDS_P1;SDS_P2;PMS_P1;PMS_P2;Temp;Humidity;BMP_temperature;BMP_pressure;BME280_temperature;BME280_humidity;BME280_pressure;Samples;Min_cycle;Max_cycle;Signal;HPM_P1;HPM_P2
2022/08/30 00:01:03;;;;;;;2.15;1.45;;;;;;;;;;4930781;29;20717;-60
2022/08/30 00:03:31;;;;;;;2.35;2.10;;;;;;;;;;4942478;29;20706;-60
2022/08/30 00:05:57;;;;;;;2.33;1.80;;;;;;;;;;4932817;29;20236;-59
2022/08/30 00:08:23;;;;;;;2.58;2.38;;;;;;;;;;4939869;28;20238;-60
2022/08/30 00:10:50;;;;;;;2.05;1.95;;;;;;;;;;4949822;29;20250;-61
2022/08/30 00:13:18;;;;;;;2.10;1.95;;;;;;;;;;4938919;28;20654;-60
2022/08/30 00:15:46;;;;;;;2.20;2.10;;;;;;;;;;4947283;28;20239;-60
2022/08/30 00:18:14;;;;;;;2.95;1.92;;;;;;;;;;4946781;28;20231;-60
2022/08/30 00:20:41;;;;;;;2.25;2.15;;;;;;;;;;4942314;28;20231;-61
2022/08/30 00:23:07;;;;;;;3.15;2.58;;;;;;;;;;4937770;28;20244;-59
2022/08/30 00:25:34;;;;;;;3.15;2.85;;;;;;;;;;4942031;28;20249;-60
2022/08/30 00:28:01;;;;;;;3.10;2.78;;;;;;;;;;4946095;28;20239;-60
2022/08/30 00:30:29;;;;;;;2.63;2.42;;;;;;;;;;4946517;28;20242;-61
2022/08/30 00:32:55;;;;;;;3.08;2.78;;;;;;;;;;4938420;28;20231;-60
2022/08/30 00:35:22;;;;;;;2.40;2.20;;;;;;;;;;4947793;28;20235;-60
2022/08/30 00:37:49;;;;;;;1.92;1.83;;;;;;;;;;4939798;28;20231;-61
2022/08/30 00:40:16;;;;;;;2.70;2.50;;;;;;;;;;4945767;28;20263;-59
2022/08/30 00:42:43;;;;;;;2.20;2.05;;;;;;;;;;4938746;28;20239;-60
2022/08/30 00:45:12;;;;;;;2.70;2.50;;;;;;;;;;4945540;28;20239;-60
2022/08/30 00:47:40;;;;;;;3.30;2.45;;;;;;;;;;4940237;28;20623;-59
2022/08/30 00:50:07;;;;;;;2.80;2.60;;;;;;;;;;4943622;28;20242;-60
2022/08/30 00:52:35;;;;;;;2.50;2.30;;;;;;;;;;4946213;28;20262;-61
2022/08/30 00:55:01;;;;;;;2.92;2.72;;;;;;;;;;4945152;28;20243;-59
2022/08/30 00:57:28;;;;;;;2.58;2.38;;;;;;;;;;4939428;28;20290;-61
2022/08/30 00:59:54;;;;;;;5.05;2.63;;;;;;;;;;4943072;28;20658;-61
2022/08/30 01:02:22;;;;;;;2.42;2.22;;;;;;;;;;4946883;28;20250;-59
2022/08/30 01:04:50;;;;;;;3.50;3.20;;;;;;;;;;4943626;28;20231;-60
2022/08/30 01:07:17;;;;;;;2.65;2.45;;;;;;;;;;4944007;28;20255;-60
2022/08/30 01:09:43;;;;;;;2.58;2.40;;;;;;;;;;4944908;28;20228;-59
2022/08/30 01:12:10;;;;;;;2.90;2.70;;;;;;;;;;4942645;28;20231;-61
2022/08/30 01:14:38;;;;;;;3.20;2.90;;;;;;;;;;4939807;28;20251;-60
2022/08/30 01:17:04;;;;;;;3.38;3.08;;;;;;;;;;4939444;28;20247;-60
2022/08/30 01:19:35;;;;;;;2.15;2.03;;;;;;;;;;4941822;28;20238;-59
2022/08/30 01:22:04;;;;;;;2.72;2.53;;;;;;;;;;4946220;28;20245;-58
2022/08/30 01:24:33;;;;;;;4.25;2.78;;;;;;;;;;4944561;28;20231;-59
2022/08/30 01:26:59;;;;;;;4.88;2.90;;;;;;;;;;4942009;28;20239;-59
2022/08/30 01:29:26;;;;;;;3.15;2.95;;;;;;;;;;4947365;28;20238;-60
2022/08/30 01:31:53;;;;;;;2.95;2.70;;;;;;;;;;4948583;28;20242;-60
2022/08/30 01:34:19;;;;;;;3.38;3.08;;;;;;;;;;4943434;28;20252;-60
2022/08/30 01:36:47;;;;;;;3.08;2.78;;;;;;;;;;4943528;28;20491;-58
2022/08/30 01:39:14;;;;;;;3.38;3.10;;;;;;;;;;4945513;28;20721;-59
2022/08/30 01:41:43;;;;;;;3.10;2.90;;;;;;;;;;4942087;28;20236;-59
2022/08/30 01:44:10;;;;;;;3.47;3.28;;;;;;;;;;4931331;28;20236;-61
2022/08/30 01:46:37;;;;;;;3.58;3.30;;;;;;;;;;4939744;28;20247;-59
2022/08/30 01:49:05;;;;;;;3.40;3.10;;;;;;;;;;4945141;28;20235;-60
2022/08/30 01:51:32;;;;;;;4.40;4.05;;;;;;;;;;4940505;28;20631;-60
2022/08/30 01:53:59;;;;;;;3.58;3.33;;;;;;;;;;4949432;28;20282;-60
2022/08/30 01:56:26;;;;;;;3.70;3.40;;;;;;;;;;4943581;28;20239;-59
2022/08/30 01:58:53;;;;;;;3.75;3.45;;;;;;;;;;4940031;28;20266;-59
2022/08/30 02:01:21;;;;;;;4.05;3.70;;;;;;;;;;4944731;28;20239;-60
2022/08/30 02:03:48;;;;;;;3.92;3.53;;;;;;;;;;4939361;28;20908;-59
2022/08/30 02:06:16;;;;;;;3.80;3.50;;;;;;;;;;4944595;28;20368;-59
2022/08/30 02:08:42;;;;;;;3.92;3.47;;;;;;;;;;4940893;28;20235;-60
2022/08/30 02:11:09;;;;;;;3.83;3.53;;;;;;;;;;4948085;28;20250;-61
2022/08/30 02:13:36;;;;;;;3.47;3.13;;;;;;;;;;4940374;28;20323;-59
2022/08/30 02:16:04;;;;;;;4.22;3.92;;;;;;;;;;4944538;28;20265;-60
2022/08/30 02:18:33;;;;;;;4.00;3.70;;;;;;;;;;4940007;28;20272;-60
2022/08/30 02:20:59;;;;;;;4.53;4.13;;;;;;;;;;4943803;28;20254;-59
2022/08/30 02:23:26;;;;;;;4.07;3.78;;;;;;;;;;4944523;28;20238;-59
2022/08/30 02:25:52;;;;;;;4.40;4.00;;;;;;;;;;4943045;28;20242;-61
2022/08/30 02:28:19;;;;;;;4.00;3.70;;;;;;;;;;4943500;28;20239;-60
2022/08/30 02:30:45;;;;;;;4.03;3.72;;;;;;;;;;4945817;28;20247;-60
2022/08/30 02:33:13;;;;;;;5.15;4.75;;;;;;;;;;4942315;28;20231;-59
2022/08/30 02:35:39;;;;;;;4.20;3.88;;;;;;;;;;4937977;28;20236;-61
2022/08/30 02:38:05;;;;;;;5.15;4.75;;;;;;;;;;4944117;28;20253;-59
2022/08/30 02:40:32;;;;;;;4.75;4.35;;;;;;;;;;4940703;28;20715;-59
2022/08/30 02:42:59;;;;;;;5.65;5.10;;;;;;;;;;4946499;28;20231;-60
2022/08/30 02:45:25;;;;;;;5.25;4.72;;;;;;;;;;4946516;28;20238;-60
2022/08/30 02:47:51;;;;;;;4.72;4.32;;;;;;;;;;4943591;28;20247;-60
2022/08/30 02:50:19;;;;;;;4.88;4.47;;;;;;;;;;4940722;28;20378;-59
2022/08/30 02:52:46;;;;;;;4.72;4.32;;;;;;;;;;4946014;28;20231;-60
2022/08/30 02:55:12;;;;;;;4.50;4.13;;;;;;;;;;4942246;28;20234;-60
2022/08/30 02:57:38;;;;;;;5.00;4.60;;;;;;;;;;4944025;28;20345;-60
2022/08/30 03:00:09;;;;;;;5.05;4.55;;;;;;;;;;4945291;28;20235;-60
2022/08/30 03:02:36;;;;;;;4.65;4.35;;;;;;;;;;4948641;28;20247;-60
2022/08/30 03:05:03;;;;;;;4.90;4.40;;;;;;;;;;4942911;28;20250;-59
2022/08/30 03:07:30;;;;;;;4.40;4.03;;;;;;;;;;4941663;28;20318;-59
2022/08/30 03:09:57;;;;;;;5.10;4.40;;;;;;;;;;4937126;28;20292;-60
2022/08/30 03:12:24;;;;;;;4.50;4.10;;;;;;;;;;4943234;28;20231;-60
2022/08/30 03:14:50;;;;;;;4.80;4.40;;;;;;;;;;4938418;28;20236;-59
2022/08/30 03:17:17;;;;;;;5.15;4.65;;;;;;;;;;4937984;28;20235;-60
2022/08/30 03:19:43;;;;;;;5.13;4.63;;;;;;;;;;4943479;28;20269;-59
2022/08/30 03:22:10;;;;;;;4.82;4.43;;;;;;;;;;4945022;28;20721;-60
2022/08/30 03:24:38;;;;;;;5.30;4.88;;;;;;;;;;4942911;28;20266;-60
2022/08/30 03:27:04;;;;;;;5.28;4.88;;;;;;;;;;4943686;28;20235;-60
2022/08/30 03:29:30;;;;;;;5.25;4.85;;;;;;;;;;4943726;28;20827;-61
2022/08/30 03:31:57;;;;;;;6.60;4.78;;;;;;;;;;4943725;28;20231;-61
2022/08/30 03:34:23;;;;;;;4.88;4.47;;;;;;;;;;4942157;28;20246;-59
2022/08/30 03:36:50;;;;;;;5.47;4.97;;;;;;;;;;4940159;28;20238;-60
2022/08/30 03:39:16;;;;;;;4.38;4.05;;;;;;;;;;4944449;28;20235;-61
2022/08/30 03:41:44;;;;;;;5.13;4.55;;;;;;;;;;4943555;28;20324;-59
2022/08/30 03:44:10;;;;;;;5.13;4.65;;;;;;;;;;4946789;28;20234;-61
2022/08/30 03:46:37;;;;;;;5.85;5.20;;;;;;;;;;4947385;28;20246;-60
2022/08/30 03:49:04;;;;;;;5.05;4.63;;;;;;;;;;4942696;28;20236;-61
2022/08/30 03:51:30;;;;;;;4.55;4.15;;;;;;;;;;4947181;28;20238;-60
2022/08/30 03:53:57;;;;;;;5.22;4.82;;;;;;;;;;4935329;28;20224;-60
2022/08/30 03:56:23;;;;;;;5.22;4.72;;;;;;;;;;4941999;28;20625;-61
2022/08/30 03:58:51;;;;;;;5.18;4.78;;;;;;;;;;4942730;28;20322;-60
2022/08/30 04:01:17;;;;;;;5.20;4.80;;;;;;;;;;4950612;28;20233;-62
2022/08/30 04:03:43;;;;;;;5.55;5.05;;;;;;;;;;4939979;28;20258;-61
2022/08/30 04:06:10;;;;;;;5.35;4.70;;;;;;;;;;4940265;28;20273;-58
2022/08/30 04:08:37;;;;;;;5.00;4.60;;;;;;;;;;4942772;28;20709;-60
2022/08/30 04:11:04;;;;;;;4.65;4.35;;;;;;;;;;4944671;28;20752;-58
2022/08/30 04:13:30;;;;;;;4.57;4.18;;;;;;;;;;4944891;28;20615;-60
2022/08/30 04:15:58;;;;;;;4.97;4.57;;;;;;;;;;4946314;28;20236;-62
2022/08/30 04:18:25;;;;;;;4.82;4.40;;;;;;;;;;4946297;28;20239;-58
2022/08/30 04:20:51;;;;;;;4.63;4.22;;;;;;;;;;4946382;28;20619;-60
2022/08/30 04:23:17;;;;;;;5.38;3.92;;;;;;;;;;4944121;28;20235;-59
2022/08/30 04:25:44;;;;;;;4.35;4.00;;;;;;;;;;4949702;28;20236;-59
2022/08/30 04:28:10;;;;;;;4.55;4.15;;;;;;;;;;4948446;28;20227;-59
2022/08/30 04:30:39;;;;;;;5.05;4.65;;;;;;;;;;4942707;28;20892;-60
2022/08/30 04:33:06;;;;;;;3.83;3.53;;;;;;;;;;4938926;28;20235;-60
2022/08/30 04:35:32;;;;;;;4.30;3.90;;;;;;;;;;4945588;28;20235;-59
2022/08/30 04:37:59;;;;;;;4.10;3.80;;;;;;;;;;4951040;28;20238;-60
2022/08/30 04:40:25;;;;;;;4.55;3.90;;;;;;;;;;4947815;28;20237;-60
2022/08/30 04:42:53;;;;;;;4.55;4.25;;;;;;;;;;4946720;28;20247;-60
2022/08/30 04:45:20;;;;;;;4.13;3.83;;;;;;;;;;4945340;28;20326;-59
2022/08/30 04:47:47;;;;;;;4.15;3.75;;;;;;;;;;4942233;28;20240;-60
2022/08/30 04:50:16;;;;;;;4.25;3.88;;;;;;;;;;4947283;28;20238;-60
2022/08/30 04:52:42;;;;;;;4.47;4.18;;;;;;;;;;4943679;28;20247;-60
2022/08/30 04:55:09;;;;;;;4.35;4.05;;;;;;;;;;4942666;28;20245;-60
2022/08/30 04:57:36;;;;;;;3.58;3.28;;;;;;;;;;4945985;28;20733;-64
2022/08/30 05:00:03;;;;;;;4.00;3.70;;;;;;;;;;4941803;28;20298;-59
2022/08/30 05:02:30;;;;;;;4.15;3.75;;;;;;;;;;4941923;28;20251;-59
2022/08/30 05:07:41;;;;;;;4.25;3.88;;;;;;;;;;4945520;28;20242;-60
2022/08/30 05:10:08;;;;;;;5.07;4.35;;;;;;;;;;4943393;28;20891;-60
2022/08/30 05:12:34;;;;;;;4.00;3.70;;;;;;;;;;4945545;28;20322;-59
2022/08/30 05:15:01;;;;;;;4.07;3.78;;;;;;;;;;4944177;28;20234;-60
2022/08/30 05:17:27;;;;;;;4.00;3.70;;;;;;;;;;4945975;28;20243;-61
2022/08/30 05:19:53;;;;;;;4.03;3.72;;;;;;;;;;4944556;28;20243;-61
2022/08/30 05:22:20;;;;;;;5.75;4.38;;;;;;;;;;4943622;28;20239;-60
2022/08/30 05:24:48;;;;;;;4.30;4.00;;;;;;;;;;4943071;28;20243;-60
2022/08/30 05:27:14;;;;;;;4.38;3.97;;;;;;;;;;4939325;28;20643;-60
2022/08/30 05:29:40;;;;;;;4.55;4.15;;;;;;;;;;4938463;28;20235;-60
2022/08/30 05:32:08;;;;;;;3.97;3.67;;;;;;;;;;4944451;28;20315;-61
2022/08/30 05:34:34;;;;;;;3.97;3.67;;;;;;;;;;4943760;28;20243;-62
2022/08/30 05:37:01;;;;;;;4.55;4.07;;;;;;;;;;4946926;28;20232;-60
2022/08/30 05:39:28;;;;;;;4.55;4.20;;;;;;;;;;4942456;28;20305;-61
2022/08/30 05:41:57;;;;;;;4.45;4.05;;;;;;;;;;4942699;28;20235;-60
2022/08/30 05:44:23;;;;;;;3.55;3.35;;;;;;;;;;4945505;28;20315;-60
2022/08/30 05:46:49;;;;;;;5.85;4.50;;;;;;;;;;4943869;28;20355;-60
2022/08/30 05:49:16;;;;;;;5.65;5.03;;;;;;;;;;4941969;28;20231;-60
2022/08/30 05:51:42;;;;;;;4.68;4.28;;;;;;;;;;4943649;28;20254;-60
2022/08/30 05:54:08;;;;;;;5.47;4.95;;;;;;;;;;4946708;28;20227;-59
2022/08/30 05:56:36;;;;;;;5.78;5.28;;;;;;;;;;4940055;28;20241;-59
2022/08/30 05:59:05;;;;;;;5.20;4.80;;;;;;;;;;4938209;28;20240;-60
2022/08/30 06:01:32;;;;;;;5.45;4.95;;;;;;;;;;4939948;28;20231;-60
2022/08/30 06:04:00;;;;;;;5.80;5.20;;;;;;;;;;4945056;28;20282;-60
2022/08/30 06:06:26;;;;;;;6.40;5.07;;;;;;;;;;4941562;28;20270;-60
2022/08/30 06:08:53;;;;;;;5.20;4.70;;;;;;;;;;4943873;28;20284;-61
2022/08/30 06:11:21;;;;;;;5.18;4.75;;;;;;;;;;4944866;28;20239;-60
2022/08/30 06:13:48;;;;;;;4.82;4.43;;;;;;;;;;4941779;28;20236;-60
2022/08/30 06:16:17;;;;;;;5.68;5.05;;;;;;;;;;4941947;28;20231;-61
2022/08/30 06:18:44;;;;;;;5.20;4.70;;;;;;;;;;4945039;28;20235;-60
2022/08/30 06:21:15;;;;;;;6.38;5.32;;;;;;;;;;4944101;28;20724;-61
2022/08/30 06:23:41;;;;;;;5.97;4.65;;;;;;;;;;4934136;28;20230;-61
2022/08/30 06:26:09;;;;;;;5.47;4.57;;;;;;;;;;4941139;28;20246;-60
2022/08/30 06:28:35;;;;;;;5.88;5.35;;;;;;;;;;4941328;28;20351;-61
2022/08/30 06:31:01;;;;;;;6.30;5.78;;;;;;;;;;4943830;28;20239;-61
2022/08/30 06:33:29;;;;;;;6.28;5.25;;;;;;;;;;4943457;28;20242;-60
2022/08/30 06:36:01;;;;;;;6.68;5.30;;;;;;;;;;4945250;28;20242;-61
2022/08/30 06:38:27;;;;;;;6.43;5.68;;;;;;;;;;4946763;28;20247;-62
2022/08/30 06:40:54;;;;;;;7.80;5.30;;;;;;;;;;4941238;28;20243;-61
2022/08/30 06:43:20;;;;;;;6.20;5.63;;;;;;;;;;4943196;28;20235;-61
2022/08/30 06:45:46;;;;;;;6.25;5.75;;;;;;;;;;4941306;28;20244;-61
2022/08/30 06:48:13;;;;;;;13.43;6.88;;;;;;;;;;4939526;28;20236;-60
2022/08/30 06:50:41;;;;;;;6.97;6.38;;;;;;;;;;4944951;28;20234;-61
2022/08/30 06:53:08;;;;;;;6.03;5.53;;;;;;;;;;4943222;28;20309;-60
2022/08/30 06:55:34;;;;;;;6.13;5.30;;;;;;;;;;4937284;28;20247;-60
2022/08/30 06:58:01;;;;;;;7.03;6.43;;;;;;;;;;4943080;28;20247;-59
2022/08/30 07:00:28;;;;;;;10.02;6.90;;;;;;;;;;4944441;28;20237;-60
2022/08/30 07:02:54;;;;;;;6.50;5.90;;;;;;;;;;4945317;28;20236;-59
2022/08/30 07:05:22;;;;;;;8.48;6.63;;;;;;;;;;4945514;28;20235;-60
2022/08/30 07:07:52;;;;;;;6.45;5.85;;;;;;;;;;4944932;28;20254;-59
2022/08/30 07:10:18;;;;;;;6.43;5.82;;;;;;;;;;4944620;28;20246;-60
2022/08/30 07:12:44;;;;;;;6.57;5.72;;;;;;;;;;4943263;28;20223;-61
2022/08/30 07:15:11;;;;;;;8.85;6.03;;;;;;;;;;4940505;28;20638;-61
2022/08/30 07:20:21;;;;;;;7.35;6.57;;;;;;;;;;4940462;28;20639;-60
2022/08/30 07:22:48;;;;;;;6.80;6.20;;;;;;;;;;4943992;28;20236;-60
2022/08/30 07:25:16;;;;;;;7.22;6.53;;;;;;;;;;4951138;28;20718;-62
2022/08/30 07:27:42;;;;;;;6.90;6.30;;;;;;;;;;4943409;28;20346;-61
2022/08/30 07:30:09;;;;;;;6.78;6.18;;;;;;;;;;4945384;28;20254;-62
2022/08/30 07:32:37;;;;;;;10.07;7.13;;;;;;;;;;4945901;28;20247;-60
2022/08/30 07:35:03;;;;;;;10.68;8.10;;;;;;;;;;4937178;28;20780;-61
2022/08/30 07:37:30;;;;;;;9.75;8.75;;;;;;;;;;4944557;28;20322;-62
2022/08/30 07:39:56;;;;;;;8.45;7.75;;;;;;;;;;4944071;28;20242;-60
2022/08/30 07:42:24;;;;;;;9.23;8.27;;;;;;;;;;4941720;28;20246;-60
2022/08/30 07:44:50;;;;;;;7.10;6.50;;;;;;;;;;4942259;28;20231;-60
2022/08/30 07:47:16;;;;;;;10.10;9.10;;;;;;;;;;4944801;28;20648;-60
2022/08/30 07:49:43;;;;;;;8.73;7.75;;;;;;;;;;4938847;28;21031;-64
2022/08/30 07:52:09;;;;;;;8.75;8.02;;;;;;;;;;4931589;28;20240;-60
2022/08/30 07:54:36;;;;;;;9.50;8.60;;;;;;;;;;4932946;28;20239;-60
2022/08/30 07:57:03;;;;;;;9.80;8.90;;;;;;;;;;4945626;28;20406;-60
2022/08/30 07:59:30;;;;;;;8.30;7.63;;;;;;;;;;4946044;28;20231;-60
2022/08/30 08:01:57;;;;;;;8.85;8.05;;;;;;;;;;4943379;28;20782;-60
2022/08/30 08:04:23;;;;;;;7.50;6.82;;;;;;;;;;4948655;28;20242;-60
2022/08/30 08:06:49;;;;;;;7.97;7.22;;;;;;;;;;4945777;28;20227;-60
2022/08/30 08:09:16;;;;;;;7.80;7.20;;;;;;;;;;4949760;28;20231;-60
2022/08/30 08:11:43;;;;;;;6.88;6.22;;;;;;;;;;4943099;28;20250;-60
2022/08/30 08:14:09;;;;;;;6.65;6.07;;;;;;;;;;4939015;28;20234;-60
2022/08/30 08:16:37;;;;;;;6.75;6.18;;;;;;;;;;4942742;28;20244;-58
2022/08/30 08:19:07;;;;;;;7.03;6.43;;;;;;;;;;4947187;28;20234;-60
2022/08/30 08:21:34;;;;;;;6.38;5.78;;;;;;;;;;4946456;28;20717;-60
2022/08/30 08:24:00;;;;;;;6.43;5.82;;;;;;;;;;4947573;28;20740;-61
2022/08/30 08:26:27;;;;;;;8.48;6.40;;;;;;;;;;4946593;28;20701;-61
2022/08/30 08:28:53;;;;;;;5.85;5.35;;;;;;;;;;4941534;28;20250;-61
2022/08/30 08:31:21;;;;;;;5.20;4.57;;;;;;;;;;4944635;28;20231;-62
2022/08/30 08:33:49;;;;;;;5.93;5.28;;;;;;;;;;4943811;28;20347;-60
2022/08/30 08:36:17;;;;;;;5.47;5.07;;;;;;;;;;4945382;28;20235;-60
2022/08/30 08:38:43;;;;;;;4.78;4.47;;;;;;;;;;4945672;28;20235;-59
2022/08/30 08:41:12;;;;;;;4.68;4.28;;;;;;;;;;4944212;28;20239;-57
2022/08/30 08:43:39;;;;;;;4.35;4.05;;;;;;;;;;4948914;28;20714;-59
2022/08/30 08:46:08;;;;;;;3.90;3.67;;;;;;;;;;4941486;28;20673;-61
2022/08/30 08:48:40;;;;;;;4.40;3.72;;;;;;;;;;4939990;28;20231;-61
2022/08/30 08:53:58;;;;;;;4.95;3.88;;;;;;;;;;4943033;28;20337;-60
2022/08/30 08:56:24;;;;;;;3.33;3.13;;;;;;;;;;4942654;28;20240;-61
2022/08/30 08:58:51;;;;;;;3.80;3.50;;;;;;;;;;4944032;28;20594;-58
2022/08/30 09:01:19;;;;;;;3.70;3.40;;;;;;;;;;4943019;28;20602;-60
2022/08/30 09:03:45;;;;;;;4.60;4.25;;;;;;;;;;4943751;28;20228;-59
2022/08/30 09:06:21;;;;;;;5.18;4.78;;;;;;;;;;4944623;28;20231;-61
2022/08/30 09:08:48;;;;;;;4.00;3.70;;;;;;;;;;4943414;28;20238;-63
2022/08/30 09:11:20;;;;;;;4.78;3.50;;;;;;;;;;4943367;28;20235;-60
2022/08/30 09:13:46;;;;;;;4.78;3.30;;;;;;;;;;4936102;28;20236;-60
2022/08/30 09:16:32;;;;;;;2.83;2.63;;;;;;;;;;4940306;28;20247;-56
2022/08/30 09:18:59;;;;;;;3.10;2.72;;;;;;;;;;4938364;28;20235;-69
2022/08/30 09:21:28;;;;;;;2.35;2.15;;;;;;;;;;4944073;28;20246;-61
2022/08/30 09:23:56;;;;;;;3.70;1.70;;;;;;;;;;4946367;28;20767;-60
2022/08/30 09:26:28;;;;;;;2.85;1.77;;;;;;;;;;4944801;28;20253;-66
2022/08/30 09:28:55;;;;;;;2.63;1.20;;;;;;;;;;4945503;28;20245;-59
2022/08/30 09:31:25;;;;;;;1.40;1.30;;;;;;;;;;4943161;28;20238;-61
2022/08/30 09:33:54;;;;;;;1.45;1.35;;;;;;;;;;4942856;28;20240;-59
2022/08/30 09:36:24;;;;;;;2.00;1.42;;;;;;;;;;4936535;28;20235;-61
2022/08/30 09:38:58;;;;;;;1.45;1.35;;;;;;;;;;4944851;28;20242;-60
2022/08/30 09:41:27;;;;;;;2.10;1.10;;;;;;;;;;4932948;28;20705;-60
2022/08/30 09:44:05;;;;;;;1.35;1.25;;;;;;;;;;4938211;28;20316;-60
2022/08/30 09:46:32;;;;;;;1.63;1.52;;;;;;;;;;4934048;28;20433;-61
2022/08/30 09:48:58;;;;;;;1.30;1.20;;;;;;;;;;4944239;28;20235;-58
2022/08/30 09:51:45;;;;;;;1.50;1.15;;;;;;;;;;4939468;28;20458;-59
2022/08/30 09:54:18;;;;;;;1.17;1.08;;;;;;;;;;4932862;28;20239;-57
2022/08/30 09:56:51;;;;;;;0.80;0.80;;;;;;;;;;4941034;28;20538;-60
2022/08/30 09:59:26;;;;;;;1.00;0.95;;;;;;;;;;4949902;28;20262;-60
2022/08/30 10:01:59;;;;;;;1.02;1.02;;;;;;;;;;4934493;28;20714;-60
2022/08/30 10:04:30;;;;;;;4.22;1.33;;;;;;;;;;4936163;28;20245;-61
2022/08/30 10:07:00;;;;;;;1.35;1.25;;;;;;;;;;4950232;28;20249;-60
2022/08/30 10:09:33;;;;;;;1.88;0.77;;;;;;;;;;4934807;28;20234;-60
2022/08/30 10:12:03;;;;;;;1.40;1.30;;;;;;;;;;4943180;28;20247;-58
2022/08/30 10:14:35;;;;;;;1.40;1.30;;;;;;;;;;4940353;28;20227;-60
2022/08/30 10:17:06;;;;;;;0.95;0.95;;;;;;;;;;4946445;28;20238;-61
2022/08/30 10:19:41;;;;;;;1.33;1.23;;;;;;;;;;4947465;28;20235;-60
2022/08/30 10:22:10;;;;;;;1.25;1.05;;;;;;;;;;4950156;28;20234;-59
2022/08/30 10:24:40;;;;;;;1.10;1.10;;;;;;;;;;4946868;28;20238;-58
2022/08/30 10:27:09;;;;;;;2.08;1.08;;;;;;;;;;4942193;28;20709;-57
2022/08/30 10:29:40;;;;;;;1.20;0.85;;;;;;;;;;4945972;28;20253;-60
2022/08/30 10:32:10;;;;;;;0.70;0.70;;;;;;;;;;4943153;28;20230;-60
2022/08/30 10:34:38;;;;;;;0.82;0.82;;;;;;;;;;4943227;28;20228;-59
2022/08/30 10:37:08;;;;;;;1.17;1.08;;;;;;;;;;4941840;28;20314;-60
2022/08/30 10:39:38;;;;;;;1.15;1.05;;;;;;;;;;4931908;28;20242;-57
2022/08/30 10:42:08;;;;;;;1.23;1.15;;;;;;;;;;4944277;28;20712;-63
2022/08/30 10:44:37;;;;;;;1.08;0.98;;;;;;;;;;4938886;28;20449;-59
2022/08/30 10:47:08;;;;;;;1.20;1.10;;;;;;;;;;4938850;28;20228;-58
2022/08/30 10:49:37;;;;;;;2.72;1.17;;;;;;;;;;4944026;28;20231;-59
2022/08/30 10:52:07;;;;;;;1.13;1.02;;;;;;;;;;4949756;28;20325;-58
2022/08/30 10:54:36;;;;;;;1.10;1.00;;;;;;;;;;4949020;28;20289;-59
2022/08/30 10:57:03;;;;;;;1.00;1.00;;;;;;;;;;4946311;28;20230;-58
2022/08/30 10:59:31;;;;;;;1.00;1.00;;;;;;;;;;4938812;28;20238;-59
2022/08/30 11:02:11;;;;;;;1.25;0.70;;;;;;;;;;4943908;28;20429;-57
2022/08/30 11:04:54;;;;;;;0.50;0.50;;;;;;;;;;4947859;28;20235;-57
2022/08/30 11:07:26;;;;;;;1.42;0.60;;;;;;;;;;4949747;28;20287;-57
2022/08/30 11:10:02;;;;;;;1.38;1.00;;;;;;;;;;4947602;28;20238;-58
2022/08/30 11:12:32;;;;;;;1.30;0.75;;;;;;;;;;4945321;28;20845;-59
2022/08/30 11:15:01;;;;;;;1.13;0.88;;;;;;;;;;4944797;28;20619;-57
2022/08/30 11:17:29;;;;;;;0.80;0.80;;;;;;;;;;4942338;28;20232;-57
2022/08/30 11:19:57;;;;;;;0.60;0.55;;;;;;;;;;4945965;28;20245;-60
2022/08/30 11:22:25;;;;;;;0.80;0.80;;;;;;;;;;4948101;28;20235;-57
2022/08/30 11:25:02;;;;;;;0.88;0.88;;;;;;;;;;4938363;28;20232;-57
2022/08/30 11:27:58;;;;;;;1.52;1.00;;;;;;;;;;4948194;28;20231;-60
2022/08/30 11:30:43;;;;;;;0.70;0.70;;;;;;;;;;4902094;29;20243;-57
2022/08/30 11:33:24;;;;;;;0.95;0.80;;;;;;;;;;4937375;28;20227;-58
2022/08/30 11:35:53;;;;;;;1.30;1.20;;;;;;;;;;4939175;28;20232;-59
2022/08/30 11:38:25;;;;;;;38.15;4.78;;;;;;;;;;4941270;28;20247;-57
2022/08/30 11:40:52;;;;;;;113.35;11.82;;;;;;;;;;4950513;28;20231;-59
2022/08/30 11:43:48;;;;;;;155.02;20.20;;;;;;;;;;4946777;28;20243;-58
2022/08/30 11:46:15;;;;;;;24.40;3.60;;;;;;;;;;4882946;29;20245;-59
2022/08/30 11:48:44;;;;;;;7.07;1.20;;;;;;;;;;4926565;28;20236;-60
2022/08/30 11:51:25;;;;;;;28.30;4.95;;;;;;;;;;4930970;28;20235;-58
2022/08/30 11:53:58;;;;;;;4.93;1.33;;;;;;;;;;4933550;28;20263;-57
2022/08/30 11:56:28;;;;;;;3.45;1.02;;;;;;;;;;4938240;28;20267;-59
2022/08/30 11:58:56;;;;;;;1.85;1.30;;;;;;;;;;4946882;28;20610;-56
2022/08/30 12:01:32;;;;;;;5.65;1.52;;;;;;;;;;4939629;28;20227;-58
2022/08/30 12:04:01;;;;;;;7.45;1.90;;;;;;;;;;4942515;28;20246;-56
2022/08/30 12:06:45;;;;;;;0.80;0.80;;;;;;;;;;4947778;28;20239;-59
2022/08/30 12:09:32;;;;;;;5.03;1.48;;;;;;;;;;4944603;28;20246;-58
2022/08/30 12:12:02;;;;;;;1.70;1.00;;;;;;;;;;4943753;28;20249;-60
2022/08/30 12:14:33;;;;;;;15.68;2.15;;;;;;;;;;4945268;28;20246;-57
2022/08/30 12:19:46;;;;;;;1.10;1.08;;;;;;;;;;4945880;28;20643;-57
2022/08/30 12:22:16;;;;;;;1.38;0.90;;;;;;;;;;4942719;28;20270;-59
2022/08/30 12:24:44;;;;;;;0.70;0.70;;;;;;;;;;4942590;28;20232;-58
2022/08/30 12:27:22;;;;;;;0.98;0.95;;;;;;;;;;4945365;28;20231;-59
2022/08/30 12:29:50;;;;;;;2.58;1.30;;;;;;;;;;4943659;28;20227;-57
2022/08/30 12:32:18;;;;;;;1.75;1.00;;;;;;;;;;4941862;28;20235;-59
2022/08/30 12:34:50;;;;;;;2.17;1.17;;;;;;;;;;4943973;28;20729;-57
2022/08/30 12:37:20;;;;;;;2.22;1.02;;;;;;;;;;4938964;28;20430;-59
2022/08/30 12:39:48;;;;;;;1.13;1.02;;;;;;;;;;4942568;28;20239;-58
2022/08/30 12:42:17;;;;;;;1.33;1.10;;;;;;;;;;4945553;28;20291;-60
2022/08/30 12:44:45;;;;;;;1.95;1.02;;;;;;;;;;4941587;28;20242;-58
2022/08/30 12:47:12;;;;;;;2.83;1.20;;;;;;;;;;4943649;28;20235;-58
2022/08/30 12:49:39;;;;;;;1.58;1.10;;;;;;;;;;4945659;28;20231;-57
2022/08/30 12:52:15;;;;;;;2.40;1.08;;;;;;;;;;4945561;28;20234;-59
2022/08/30 12:54:42;;;;;;;0.90;0.82;;;;;;;;;;4942268;28;20293;-58
2022/08/30 12:57:08;;;;;;;1.05;0.95;;;;;;;;;;4933710;28;20236;-59
2022/08/30 12:59:39;;;;;;;1.08;0.80;;;;;;;;;;4940489;28;20258;-57
2022/08/30 13:02:13;;;;;;;1.08;1.05;;;;;;;;;;4925813;28;20729;-59
2022/08/30 13:04:39;;;;;;;2.03;1.00;;;;;;;;;;4934523;28;20235;-58
2022/08/30 13:07:08;;;;;;;1.27;0.85;;;;;;;;;;4943561;28;20239;-58
2022/08/30 13:09:35;;;;;;;1.67;1.40;;;;;;;;;;4947431;28;20228;-58
2022/08/30 13:12:03;;;;;;;2.83;1.95;;;;;;;;;;4946675;28;20234;-57
2022/08/30 13:14:31;;;;;;;1.90;1.75;;;;;;;;;;4944663;28;20240;-57
2022/08/30 13:17:08;;;;;;;2.85;1.73;;;;;;;;;;4937662;28;20243;-58
2022/08/30 13:19:37;;;;;;;3.15;2.30;;;;;;;;;;4942243;28;20227;-59
2022/08/30 13:22:06;;;;;;;2.95;2.58;;;;;;;;;;4942105;28;20235;-57
2022/08/30 13:24:32;;;;;;;2.17;1.98;;;;;;;;;;4941925;28;20231;-61
2022/08/30 13:27:02;;;;;;;2.50;2.30;;;;;;;;;;4932553;28;20235;-57
2022/08/30 13:29:28;;;;;;;2.10;2.00;;;;;;;;;;4937750;28;20246;-57
2022/08/30 13:31:55;;;;;;;3.92;2.20;;;;;;;;;;4943149;28;20610;-57
2022/08/30 13:34:22;;;;;;;2.22;2.03;;;;;;;;;;4941472;28;20235;-60
2022/08/30 13:36:51;;;;;;;2.15;2.05;;;;;;;;;;4943124;28;20274;-59
2022/08/30 13:39:17;;;;;;;2.58;2.38;;;;;;;;;;4946481;28;20238;-58
2022/08/30 13:41:43;;;;;;;3.25;1.92;;;;;;;;;;4940569;28;20231;-59
2022/08/30 13:44:10;;;;;;;2.47;2.17;;;;;;;;;;4938115;28;20238;-60
2022/08/30 13:46:38;;;;;;;2.50;2.30;;;;;;;;;;4924793;28;20241;-58
2022/08/30 13:49:05;;;;;;;2.28;2.08;;;;;;;;;;4940383;28;20241;-58
2022/08/30 13:51:31;;;;;;;1.90;1.80;;;;;;;;;;4936407;28;20235;-58
2022/08/30 13:53:59;;;;;;;1.92;1.83;;;;;;;;;;4938106;28;20239;-60
2022/08/30 13:56:26;;;;;;;2.85;1.73;;;;;;;;;;4940428;28;20250;-61
2022/08/30 13:58:53;;;;;;;1.80;1.70;;;;;;;;;;4948324;28;20223;-59
2022/08/30 14:01:19;;;;;;;3.03;2.28;;;;;;;;;;4944801;28;20271;-59
2022/08/30 14:03:45;;;;;;;2.50;2.30;;;;;;;;;;4945577;28;20314;-59
2022/08/30 14:06:11;;;;;;;2.42;2.22;;;;;;;;;;4937721;28;20247;-59
2022/08/30 14:08:38;;;;;;;3.08;2.30;;;;;;;;;;4944651;28;20231;-60
2022/08/30 14:11:06;;;;;;;2.08;1.98;;;;;;;;;;4941492;28;20231;-60
2022/08/30 14:13:34;;;;;;;2.60;2.45;;;;;;;;;;4928308;29;20235;-59
2022/08/30 14:16:05;;;;;;;2.53;2.10;;;;;;;;;;4940300;28;20246;-60
2022/08/30 14:18:32;;;;;;;2.10;1.88;;;;;;;;;;4936482;28;20270;-60
2022/08/30 14:20:59;;;;;;;4.60;1.85;;;;;;;;;;4926059;29;20611;-60
2022/08/30 14:23:25;;;;;;;1.90;1.45;;;;;;;;;;4937389;28;20728;-59
2022/08/30 14:25:52;;;;;;;2.88;1.83;;;;;;;;;;4946340;28;20322;-59
2022/08/30 14:28:20;;;;;;;1.77;1.50;;;;;;;;;;4942287;28;20341;-60
2022/08/30 14:30:47;;;;;;;1.48;1.38;;;;;;;;;;4947270;28;20238;-61
2022/08/30 14:33:14;;;;;;;1.40;1.13;;;;;;;;;;4944214;28;20254;-60
2022/08/30 14:35:40;;;;;;;1.90;1.33;;;;;;;;;;4941027;28;20271;-60
2022/08/30 14:38:06;;;;;;;1.95;1.63;;;;;;;;;;4938975;28;20246;-60
2022/08/30 14:40:33;;;;;;;1.45;1.35;;;;;;;;;;4941373;28;20266;-59
2022/08/30 14:42:59;;;;;;;1.58;1.33;;;;;;;;;;4938748;28;20751;-59
2022/08/30 14:45:27;;;;;;;1.40;1.30;;;;;;;;;;4941750;28;20725;-59
2022/08/30 14:47:55;;;;;;;1.55;1.45;;;;;;;;;;4940709;28;20269;-60
2022/08/30 14:50:22;;;;;;;2.03;1.60;;;;;;;;;;4944329;28;20254;-59
2022/08/30 14:52:48;;;;;;;1.48;1.38;;;;;;;;;;4942473;28;20709;-60
2022/08/30 14:55:15;;;;;;;2.03;1.60;;;;;;;;;;4941263;28;20258;-61
2022/08/30 14:57:41;;;;;;;2.22;1.65;;;;;;;;;;4935727;28;20242;-61
2022/08/30 15:00:09;;;;;;;3.15;2.35;;;;;;;;;;4941305;28;20736;-60